createdAt,value
2022-09-23T00:00:21.495Z,70.1
2022-09-23T00:05:56.486Z,70
2022-09-23T00:11:53.150Z,70.1
2022-09-23T00:17:26.717Z,70.2
2022-09-23T00:23:01.628Z,70.3
2022-09-23T00:28:36.754Z,70.3
2022-09-23T00:34:11.894Z,70.4
2022-09-23T00:39:46.616Z,70.3
2022-09-23T00:45:22.791Z,70.5
2022-09-23T00:50:58.736Z,70.5
2022-09-23T00:56:33.610Z,70.7
2022-09-23T01:02:13.289Z,70.9
2022-09-23T01:07:49.014Z,71
2022-09-23T01:13:45.636Z,71
2022-09-23T01:19:18.234Z,71
2022-09-23T01:25:01.050Z,71.1
2022-09-23T01:30:36.964Z,71.2
2022-09-23T01:36:13.855Z,71.3
2022-09-23T01:41:48.809Z,71.5
2022-09-23T01:47:27.573Z,71.6
2022-09-23T01:53:02.491Z,71.5
2022-09-23T01:58:37.573Z,71.6
2022-09-23T02:04:22.651Z,71.6
2022-09-23T02:10:21.457Z,71.7
2022-09-23T02:15:56.277Z,71.9
2022-09-23T02:21:31.025Z,72
2022-09-23T02:27:05.890Z,71.8
2022-09-23T02:32:40.695Z,71.6
2022-09-23T02:38:25.403Z,71.4
2022-09-23T02:44:00.561Z,71.4
2022-09-23T02:49:35.426Z,71.7
2022-09-23T02:55:11.350Z,71.8
2022-09-23T03:00:46.847Z,71.9
2022-09-23T03:06:22.153Z,71.7
2022-09-23T03:12:18.670Z,71.9
2022-09-23T03:17:51.058Z,72.2
2022-09-23T03:23:35.281Z,72.2
2022-09-23T03:29:11.055Z,72.2
2022-09-23T03:34:47.891Z,72.1
2022-09-23T03:40:23.168Z,72.1
2022-09-23T03:45:58.842Z,72.1
2022-09-23T03:51:34.262Z,72.3
2022-09-23T03:57:18.365Z,72.7
2022-09-23T04:02:53.110Z,72.5
2022-09-23T04:08:28.163Z,72.4
2022-09-23T04:14:25.362Z,72.7
2022-09-23T04:19:57.921Z,72.7
2022-09-23T04:25:32.722Z,72.8
2022-09-23T04:31:31.114Z,73.1
2022-09-23T04:37:06.539Z,73
2022-09-23T04:42:41.727Z,72.8
2022-09-23T04:48:17.213Z,72.8
2022-09-23T04:53:52.951Z,72.6
2022-09-23T04:59:48.776Z,72.5
2022-09-23T05:05:23.735Z,72.5
2022-09-23T05:11:27.965Z,72.4
2022-09-23T05:17:00.413Z,72.5
2022-09-23T05:22:35.365Z,72.5
2022-09-23T05:28:11.740Z,72.5
2022-09-23T05:33:46.740Z,72.5
2022-09-23T05:39:21.843Z,72.5
2022-09-23T05:44:56.705Z,72.6
2022-09-23T05:50:44.888Z,72.8
2022-09-23T05:56:24.617Z,72.9
2022-09-23T06:02:00.754Z,73
2022-09-23T06:07:49.052Z,72.9
2022-09-23T06:13:48.723Z,72.8
2022-09-23T06:19:22.631Z,72.8
2022-09-23T06:24:58.471Z,72.9
2022-09-23T06:30:33.262Z,73.8
2022-09-23T06:36:08.445Z,76.7
2022-09-23T06:41:44.605Z,76.6
2022-09-23T06:47:20.296Z,77.1
2022-09-23T06:52:55.259Z,78.3
2022-09-23T06:58:31.666Z,77.8
2022-09-23T07:04:08.379Z,78.8
2022-09-23T07:09:43.516Z,77.7
2022-09-23T07:15:19.279Z,77
2022-09-23T07:20:55.892Z,77
2022-09-23T07:26:30.870Z,77.5
2022-09-23T07:32:27.508Z,78.7
2022-09-23T07:38:34.308Z,77.8
2022-09-23T07:44:19.882Z,77.4
2022-09-23T07:50:03.806Z,77.4
2022-09-23T07:55:40.200Z,77.2
2022-09-23T08:01:15.532Z,75.4
2022-09-23T08:06:51.965Z,76.8
2022-09-23T08:12:49.188Z,75
2022-09-23T08:18:22.730Z,73.3
2022-09-23T08:23:57.832Z,71.5
2022-09-23T08:29:38.050Z,69.5
2022-09-23T08:35:13.236Z,69.5
2022-09-23T08:40:56.705Z,70.5
2022-09-23T08:46:31.938Z,68.7
2022-09-23T08:52:16.587Z,61.4
2022-09-23T08:58:25.205Z,59
2022-09-23T09:04:02.843Z,55.9
2022-09-23T09:09:37.702Z,57
2022-09-23T09:15:12.489Z,59
2022-09-23T09:20:48.522Z,56.5
2022-09-23T09:26:23.580Z,56.3
2022-09-23T09:31:58.704Z,56.2
2022-09-23T09:37:34.047Z,56.8
2022-09-23T09:43:09.204Z,55.8
2022-09-23T09:48:44.185Z,57.7
2022-09-23T09:54:19.016Z,57.8
2022-09-23T09:59:53.894Z,58.5
2022-09-23T10:06:52.546Z,58.9
2022-09-23T10:12:27.663Z,57.2
2022-09-23T10:18:02.442Z,56.9
2022-09-23T10:23:37.410Z,59.6
2022-09-23T10:29:13.259Z,55.8
2022-09-23T10:34:49.157Z,50.8
2022-09-23T10:40:30.348Z,49.6
2022-09-23T10:46:07.019Z,49.1
2022-09-23T10:51:42.659Z,52
2022-09-23T10:57:26.495Z,51.9
2022-09-23T11:03:01.511Z,50.8
2022-09-23T11:08:36.419Z,48.5
2022-09-23T11:14:12.496Z,46.2
2022-09-23T11:19:47.476Z,46.3
2022-09-23T11:25:44.219Z,45.9
2022-09-23T11:31:19.700Z,45.4
2022-09-23T11:37:02.760Z,43.5
2022-09-23T11:42:37.513Z,43.7
2022-09-23T11:48:15.519Z,45.7
2022-09-23T11:53:50.890Z,42.1
2022-09-23T11:59:40.819Z,42.4
2022-09-23T12:05:18.042Z,42.4
2022-09-23T12:10:55.871Z,44.4
2022-09-23T12:16:31.063Z,42.2
2022-09-23T12:22:06.812Z,40.8
2022-09-23T12:27:43.269Z,41.9
2022-09-23T12:33:18.471Z,42
2022-09-23T12:38:53.325Z,42.4
2022-09-23T12:44:28.420Z,43.2
2022-09-23T12:50:03.227Z,44.5
2022-09-23T12:55:38.152Z,46.9
2022-09-23T13:01:14.005Z,47.1
2022-09-23T13:06:50.979Z,47.8
2022-09-23T13:12:26.857Z,50.2
2022-09-23T13:18:03.085Z,50.7
2022-09-23T13:23:38.950Z,50.7
2022-09-23T13:29:13.891Z,44.3
2022-09-23T13:34:48.692Z,43.1
2022-09-23T13:40:24.129Z,46.2
2022-09-23T13:46:07.803Z,45.8
2022-09-23T13:51:44.082Z,45.7
2022-09-23T13:57:19.151Z,44.8
2022-09-23T14:02:54.355Z,44.1
2022-09-23T14:08:29.425Z,46.3
2022-09-23T14:14:04.375Z,46.5
2022-09-23T14:19:40.241Z,47
2022-09-23T14:25:15.242Z,47.7
2022-09-23T14:30:51.465Z,46.7
2022-09-23T14:36:26.743Z,46.5
2022-09-23T14:42:02.584Z,46.8
2022-09-23T14:47:37.450Z,46.1
2022-09-23T14:53:12.727Z,45.4
2022-09-23T14:58:53.227Z,46.9
2022-09-23T15:04:28.779Z,43.9
2022-09-23T15:10:04.055Z,44.6
2022-09-23T15:15:40.008Z,47.3
2022-09-23T15:21:14.825Z,48.3
2022-09-23T15:26:49.766Z,49.5
2022-09-23T15:32:25.859Z,52.8
2022-09-23T15:38:00.594Z,52.4
2022-09-23T15:43:36.257Z,53.9
2022-09-23T15:49:19.613Z,55.5
2022-09-23T15:54:57.413Z,60
2022-09-23T16:00:32.199Z,56.7
2022-09-23T16:06:07.831Z,57
2022-09-23T16:11:43.052Z,57.7
2022-09-23T16:17:17.824Z,58.3
2022-09-23T16:22:53.981Z,58.3
2022-09-23T16:28:28.729Z,58.6
2022-09-23T16:34:03.672Z,59.2
2022-09-23T16:39:42.171Z,60.1
2022-09-23T16:45:19.787Z,61.2
2022-09-23T16:50:54.622Z,62.7
2022-09-23T16:56:29.905Z,63.8
2022-09-23T17:02:05.384Z,64
2022-09-23T17:07:43.220Z,66.4
2022-09-23T17:13:18.615Z,70.7
2022-09-23T17:18:53.941Z,74.6
2022-09-23T17:24:29.028Z,78.7
2022-09-23T17:30:04.196Z,78.2
2022-09-23T17:35:39.027Z,79.4
2022-09-23T17:41:15.164Z,81.8
2022-09-23T17:47:01.772Z,82
2022-09-23T17:52:36.440Z,83.2
2022-09-23T17:58:11.317Z,83.2
2022-09-23T18:03:46.482Z,84.5
2022-09-23T18:09:21.359Z,85.7
2022-09-23T18:14:56.307Z,85.4
2022-09-23T18:20:31.342Z,85
2022-09-23T18:26:06.513Z,85.6
2022-09-23T18:31:41.868Z,85.4
2022-09-23T18:37:18.875Z,85.6
2022-09-23T18:42:54.748Z,87.1
2022-09-23T18:48:31.261Z,83.7
2022-09-23T18:54:07.994Z,83.6
2022-09-23T18:59:43.458Z,84.6
2022-09-23T19:05:19.683Z,87
2022-09-23T19:11:16.250Z,87.1
2022-09-23T19:16:49.869Z,87.8
2022-09-23T19:22:25.107Z,88.1
2022-09-23T19:28:01.092Z,88
2022-09-23T19:33:36.265Z,88
2022-09-23T19:39:12.745Z,88.4
2022-09-23T19:44:47.553Z,88.2
2022-09-23T19:50:22.931Z,88.7
2022-09-23T19:55:57.958Z,88.6
2022-09-23T20:01:34.632Z,89.1
2022-09-23T20:07:10.271Z,89.4
2022-09-23T20:12:45.063Z,89.5
2022-09-23T20:18:20.176Z,89.9
2022-09-23T20:23:55.141Z,89.9
2022-09-23T20:29:29.878Z,89.5
2022-09-23T20:35:04.982Z,89.8
2022-09-23T20:40:40.720Z,89.9
2022-09-23T20:46:16.512Z,89.9
2022-09-23T20:51:52.738Z,90.1
2022-09-23T20:57:27.976Z,90.3
2022-09-23T21:03:03.176Z,90.3
2022-09-23T21:08:37.963Z,89.8
2022-09-23T21:14:12.786Z,90
2022-09-23T21:19:48.747Z,90
2022-09-23T21:25:30.992Z,89
2022-09-23T21:31:09.459Z,87
2022-09-23T21:36:45.160Z,86
2022-09-23T21:42:21.358Z,85.4
2022-09-23T21:47:57.574Z,85
2022-09-23T21:53:32.752Z,84.7
2022-09-23T21:59:08.534Z,84.5
2022-09-23T22:04:50.402Z,84.3
2022-09-23T22:10:25.296Z,84
2022-09-23T22:16:00.557Z,83.8
2022-09-23T22:21:37.596Z,83.4
2022-09-23T22:27:12.613Z,82.9
2022-09-23T22:32:55.522Z,82.5
2022-09-23T22:38:32.494Z,82
2022-09-23T22:44:09.742Z,81.7
2022-09-23T22:49:44.970Z,81.5
2022-09-23T22:55:21.893Z,81.4
2022-09-23T23:00:56.899Z,81.1
2022-09-23T23:06:32.862Z,81.1
2022-09-23T23:12:29.807Z,81
2022-09-23T23:18:02.382Z,81.2
2022-09-23T23:23:37.118Z,81.4
2022-09-23T23:29:13.133Z,81.6
2022-09-23T23:34:48.006Z,81.7
2022-09-23T23:40:23.295Z,81.7
2022-09-23T23:45:58.963Z,82
2022-09-23T23:51:33.864Z,82.1
2022-09-23T23:57:08.938Z,82.1
